Hartford, Connecticut
Traffic Map
Current Weather Conditions
Hartford, Connecticut
Overcast
Overcast
10°
Feels Like: 10°
Wind Chill: 10° Ceiling: 5000
Heat Index: 10° Visibility: 10mi
Dew Point: Wind: 9mph
Humidity: 74% Direction: 310° (NW)
Pressure: 29.5in Gusts: 0mph
Raw Report DataKHFD 230953Z 31008KT 10SM OVC050 10/06 A2950 RMK AO2 PRESRR SLP990 T01000056
Traffic Incident Summary
Active as of:
Severity:
Category:
InformationThere was an issue retrieving the traffic information for this location. Please try a different location or try again shortly.
Advertisements
At Last! Intellicast now available for iPhone and Android